Seaspan Reliant — CFEB — position and weather

sailwx.info

Track history (hours):
 
Tides and Currents Weather Stations Pressure Air Temp Water Temp Dewpoint Dewpoint Depression Visibility Wind Speed Wind Dir Waves Ship Positions

Seaspan Reliant

Last reported at 2018-Jun-21 09:09 UTC. Time now 2018-Jun-21 09:58 UTC.
Position N 49°08' W 123°23'.

Length 150 m; draft 4 m.

Type: Ship. MMSI: 316033814.

Date/timePositionNaut miles runAvg speedWind from/ knotsBaromVisibWave heightAir tempDewpointWater temp
2018-Jun-21 09:09N 49°08' W 123°23'414.8
2018-Jun-21 08:52N 49°07' W 123°17'514.9
2018-Jun-21 08:30N 49°07' W 123°09'5 9.3
2018-Jun-21 07:59N 49°09' W 123°02'0 0.0
2018-Jun-21 07:30N 49°09' W 123°02'0 0.0
2018-Jun-21 07:00N 49°09' W 123°02'0 0.0
2018-Jun-21 06:30N 49°09' W 123°02'1 2.1
2018-Jun-21 06:00N 49°08' W 123°03'611.0
2018-Jun-21 05:30N 49°07' W 123°12'611.4
2018-Jun-21 05:00N 49°05' W 123°20'1014.5
2018-Jun-21 04:18N 48°55' W 123°18'411.7
2018-Jun-21 04:00N 48°52' W 123°21'611.7
2018-Jun-21 03:30N 48°46' W 123°22'5 9.8
2018-Jun-21 03:00N 48°41' W 123°24'0 0.0
2018-Jun-21 02:30N 48°41' W 123°24'0 0.0
2018-Jun-21 02:00N 48°41' W 123°24'0 0.0
2018-Jun-21 01:30N 48°41' W 123°24'0 0.1
2018-Jun-21 00:59N 48°41' W 123°24'510.6
2018-Jun-21 00:30N 48°46' W 123°21'1411.9
2018-Jun-20 23:19N 49°00' W 123°19'613.3
2018-Jun-20 22:53N 49°06' W 123°19'714.4
2018-Jun-20 22:26N 49°07' W 123°09'512.2
2018-Jun-20 22:00N 49°09' W 123°02'0 0.0
2018-Jun-20 21:30N 49°09' W 123°02'0 0.0
2018-Jun-20 20:58N 49°09' W 123°02'0 0.0
2018-Jun-20 20:30N 49°09' W 123°02'1 2.8
2018-Jun-20 20:01N 49°08' W 123°04'712.3
2018-Jun-20 19:28N 49°08' W 123°14'14 1.5
2018-Jun-20 09:44N 49°11' W 123°35'416.4
2018-Jun-20 09:28N 49°09' W 123°29'816.6
2018-Jun-20 09:01N 49°06' W 123°19'714.3
2018-Jun-20 08:31N 49°07' W 123°08'4 8.6
2018-Jun-20 08:00N 49°09' W 123°02'0 0.0
2018-Jun-20 07:30N 49°09' W 123°02'0 0.0
2018-Jun-20 07:00N 49°09' W 123°02'0 0.0
2018-Jun-20 06:30N 49°09' W 123°02'1 1.1
2018-Jun-20 06:00N 49°08' W 123°03'4 7.6
2018-Jun-20 05:31N 49°06' W 123°08'712.4
2018-Jun-20 04:59N 49°06' W 123°18'613.0
2018-Jun-20 04:30N 49°00' W 123°19'812.9
2018-Jun-20 03:53N 48°52' W 123°18'511.8
2018-Jun-20 03:25N 48°47' W 123°21'613.9
2018-Jun-20 03:00N 48°42' W 123°23'1 1.4
2018-Jun-20 02:30N 48°41' W 123°24'0 0.0
2018-Jun-20 01:59N 48°41' W 123°24'0 0.0
2018-Jun-20 01:30N 48°41' W 123°24'0 0.0
2018-Jun-20 01:00N 48°41' W 123°24'5 9.4
2018-Jun-20 00:30N 48°45' W 123°21'1012.1
2018-Jun-19 23:42N 48°55' W 123°18'512.2
2018-Jun-19 23:16N 49°00' W 123°20'514.8
2018-Jun-19 22:54N 49°06' W 123°19'614.5
2018-Jun-19 22:29N 49°07' W 123°10'611.8
2018-Jun-19 22:00N 49°09' W 123°02'0 0.4
2018-Jun-19 21:30N 49°09' W 123°02'0 0.0
2018-Jun-19 21:00N 49°09' W 123°02'0 0.0
2018-Jun-19 20:30N 49°09' W 123°02'2 3.6
2018-Jun-19 20:00N 49°08' W 123°04'711.7
2018-Jun-19 19:24N 49°08' W 123°15'612.8
2018-Jun-19 18:57N 49°07' W 123°24'9 0.9
2018-Jun-19 09:45N 49°11' W 123°36'415.2
2018-Jun-19 09:28N 49°09' W 123°30'715.6
2018-Jun-19 09:00N 49°06' W 123°19'714.5
2018-Jun-19 08:30N 49°07' W 123°08'5 9.2
2018-Jun-19 08:00N 49°09' W 123°02'0 0.1
2018-Jun-19 07:30N 49°09' W 123°02'0 0.0
2018-Jun-19 07:00N 49°09' W 123°02'0 0.0
2018-Jun-19 06:30N 49°09' W 123°02'1 1.1
2018-Jun-19 06:00N 49°08' W 123°03'610.4
2018-Jun-19 05:25N 49°07' W 123°12'1110.3
2018-Jun-19 04:23N 48°58' W 123°18'611.4
2018-Jun-19 03:51N 48°52' W 123°20'613.7
2018-Jun-19 03:23N 48°45' W 123°22'411.2
2018-Jun-19 03:00N 48°41' W 123°24'0 0.1
2018-Jun-19 02:30N 48°41' W 123°24'0 0.0
2018-Jun-19 02:00N 48°41' W 123°24'0 0.0
2018-Jun-19 01:30N 48°41' W 123°24'0 0.1
2018-Jun-19 01:01N 48°41' W 123°24'5 9.4
2018-Jun-19 00:30N 48°46' W 123°21'611.2
2018-Jun-18 23:58N 48°52' W 123°21'510.6
2018-Jun-18 23:28N 48°57' W 123°18'815.2
2018-Jun-18 22:58N 49°04' W 123°20'714.3
2018-Jun-18 22:27N 49°07' W 123°09'5 2.3
2018-Jun-18 20:17N 49°09' W 123°02'1 4.1
2018-Jun-18 19:59N 49°08' W 123°04'810.3
2018-Jun-18 19:10N 49°07' W 123°16'212.5
2018-Jun-18 18:59N 49°06' W 123°20'2 0.2
2018-Jun-18 06:49N 49°07' W 123°23'510.6
2018-Jun-18 06:20N 49°08' W 123°15'411.2
2018-Jun-18 06:00N 49°07' W 123°10'5 3.2
2018-Jun-18 04:21N 49°09' W 123°02'0 0.0
2018-Jun-18 04:01N 49°09' W 123°02'0 0.0
2018-Jun-18 03:31N 49°09' W 123°02'0 0.0
2018-Jun-18 03:00N 49°09' W 123°02'0 0.0
2018-Jun-18 02:30N 49°09' W 123°02'0 0.0
2018-Jun-18 02:00N 49°09' W 123°02'0 0.0
2018-Jun-18 01:30N 49°09' W 123°02'0 0.0
2018-Jun-18 01:00N 49°09' W 123°02'0 0.0
2018-Jun-18 00:30N 49°09' W 123°02'0 0.0
2018-Jun-18 00:00N 49°09' W 123°02'0 0.0
2018-Jun-17 23:31N 49°09' W 123°02'0 0.0
2018-Jun-17 23:01N 49°09' W 123°02'0 0.0
2018-Jun-17 22:30N 49°09' W 123°02'0 0.0
2018-Jun-17 22:00N 49°09' W 123°02'0 0.0
2018-Jun-17 21:30N 49°09' W 123°02'0 0.0
2018-Jun-17 21:00N 49°09' W 123°02'0 0.0
2018-Jun-17 20:31N 49°09' W 123°02'0 0.0
2018-Jun-17 20:01N 49°09' W 123°02'0 0.0
2018-Jun-17 19:30N 49°09' W 123°02'0 0.0
2018-Jun-17 19:00N 49°09' W 123°02'0 0.0
2018-Jun-17 18:31N 49°09' W 123°02'0 0.0
2018-Jun-17 18:00N 49°09' W 123°02'0 0.0
2018-Jun-17 17:30N 49°09' W 123°02'0 0.0
2018-Jun-17 17:00N 49°09' W 123°02'0 0.0
2018-Jun-17 16:31N 49°09' W 123°02'0 0.0
2018-Jun-17 16:00N 49°09' W 123°02'3 5.2
2018-Jun-17 15:30N 49°07' W 123°05'5 9.6
2018-Jun-17 14:56N 49°08' W 123°13'510.6
2018-Jun-17 14:29N 49°05' W 123°20'510.6
2018-Jun-17 14:00N 49°00' W 123°18'611.0
2018-Jun-17 13:29N 48°55' W 123°18'5 9.2
2018-Jun-17 13:00N 48°51' W 123°21'511.1
2018-Jun-17 12:30N 48°45' W 123°21'4 8.9
2018-Jun-17 12:01N 48°41' W 123°24'0 0.3
2018-Jun-17 11:30N 48°41' W 123°24'0 0.0
2018-Jun-17 11:00N 48°41' W 123°24'0 0.0
2018-Jun-17 10:30N 48°41' W 123°24'0 0.4
2018-Jun-17 10:01N 48°41' W 123°24'510.1
2018-Jun-17 09:30N 48°46' W 123°21'1111.5
2018-Jun-17 08:33N 48°57' W 123°18'113.0
2018-Jun-17 08:29N 48°58' W 123°19'713.3
2018-Jun-17 07:59N 49°04' W 123°20'3 7.3
2018-Jun-17 07:31N 49°07' W 123°16'611.2
2018-Jun-17 07:00N 49°06' W 123°08'4 8.4
2018-Jun-17 06:29N 49°09' W 123°02'0 0.0
2018-Jun-17 05:59N 49°09' W 123°02'0 0.0
2018-Jun-17 05:30N 49°09' W 123°02'0 0.0
2018-Jun-17 05:00N 49°09' W 123°02'0 0.0
2018-Jun-17 04:30N 49°09' W 123°02'0 0.0
2018-Jun-17 04:00N 49°09' W 123°02'0 0.0
2018-Jun-17 03:30N 49°09' W 123°02'0 0.0
2018-Jun-17 03:00N 49°09' W 123°02'0 0.0
2018-Jun-17 02:30N 49°09' W 123°02'0 0.0
2018-Jun-17 02:00N 49°09' W 123°02'0 0.0
2018-Jun-17 01:30N 49°09' W 123°02'0 0.0
2018-Jun-17 01:00N 49°09' W 123°02'0 0.0
2018-Jun-17 00:30N 49°09' W 123°02'0 0.0
2018-Jun-17 00:00N 49°09' W 123°02'0 0.0
2018-Jun-16 23:29N 49°09' W 123°02'0 0.0
2018-Jun-16 23:00N 49°09' W 123°02'0 0.0
2018-Jun-16 22:29N 49°09' W 123°02'0 0.0
2018-Jun-16 21:59N 49°09' W 123°02'0 0.0
2018-Jun-16 21:30N 49°09' W 123°02'0 0.0
2018-Jun-16 21:00N 49°09' W 123°02'0 0.0
2018-Jun-16 20:29N 49°09' W 123°02'1 2.4
2018-Jun-16 20:00N 49°08' W 123°03'510.0
2018-Jun-16 19:28N 49°07' W 123°12'510.1
2018-Jun-16 19:00N 49°06' W 123°19'9 1.0
2018-Jun-16 09:34N 49°10' W 123°32'114.9
2018-Jun-16 09:29N 49°10' W 123°30'714.3
2018-Jun-16 09:00N 49°07' W 123°21'713.3
2018-Jun-16 08:30N 49°07' W 123°10'611.2
2018-Jun-16 08:00N 49°09' W 123°02'0 0.0
2018-Jun-16 07:30N 49°09' W 123°02'0 0.0
2018-Jun-16 07:00N 49°09' W 123°02'0 0.0
2018-Jun-16 06:30N 49°09' W 123°02'1 1.6
2018-Jun-16 06:00N 49°08' W 123°03'611.1
2018-Jun-16 05:30N 49°07' W 123°12'611.7
2018-Jun-16 04:59N 49°05' W 123°20'714.4
2018-Jun-16 04:28N 48°57' W 123°18'610.7
2018-Jun-16 03:56N 48°52' W 123°20'511.7
2018-Jun-16 03:31N 48°47' W 123°21'611.3
2018-Jun-16 03:00N 48°41' W 123°24'0 0.0
2018-Jun-16 02:31N 48°41' W 123°24'0 0.0
2018-Jun-16 02:00N 48°41' W 123°24'0 0.0
2018-Jun-16 01:31N 48°41' W 123°24'0 0.2
2018-Jun-16 01:00N 48°41' W 123°24'510.6
2018-Jun-16 00:30N 48°46' W 123°21'610.7
2018-Jun-16 00:00N 48°52' W 123°19'613.0
2018-Jun-15 23:30N 48°58' W 123°20'813.9
2018-Jun-15 22:57N 49°06' W 123°20'714.1
2018-Jun-15 22:29N 49°07' W 123°10'510.8
2018-Jun-15 22:00N 49°09' W 123°02'0 0.0
2018-Jun-15 21:29N 49°09' W 123°02'0 0.0
2018-Jun-15 21:00N 49°09' W 123°02'0 0.0
2018-Jun-15 20:30N 49°09' W 123°02'2 3.4
2018-Jun-15 20:00N 49°08' W 123°04'610.3
2018-Jun-15 19:23N 49°08' W 123°14'511.6
2018-Jun-15 18:57N 49°06' W 123°21'9 1.0
2018-Jun-15 09:39N 49°10' W 123°34'315.1
2018-Jun-15 09:27N 49°09' W 123°29'715.1
2018-Jun-15 08:59N 49°06' W 123°19'714.4
2018-Jun-15 08:29N 49°06' W 123°08'5 9.5
2018-Jun-15 08:00N 49°09' W 123°02'0 0.0
2018-Jun-15 07:29N 49°09' W 123°02'0 0.0
2018-Jun-15 07:01N 49°09' W 123°02'0 0.0
2018-Jun-15 06:30N 49°09' W 123°02'1 1.8
2018-Jun-15 05:59N 49°08' W 123°03'510.8
2018-Jun-15 05:30N 49°07' W 123°11'612.0
2018-Jun-15 05:00N 49°05' W 123°20'814.6
2018-Jun-15 04:27N 48°57' W 123°18'610.9
2018-Jun-15 03:55N 48°52' W 123°21'513.6
2018-Jun-15 03:30N 48°46' W 123°22'510.4
2018-Jun-15 03:01N 48°41' W 123°24'0 0.0
2018-Jun-15 02:29N 48°41' W 123°24'0 0.0
2018-Jun-15 02:00N 48°41' W 123°24'0 0.0
2018-Jun-15 01:31N 48°41' W 123°24'1 1.4
2018-Jun-15 01:01N 48°42' W 123°23'712.7
2018-Jun-15 00:30N 48°48' W 123°21'1012.2
2018-Jun-14 23:42N 48°58' W 123°20'315.2
2018-Jun-14 23:29N 49°01' W 123°21'712.8
2018-Jun-14 22:57N 49°07' W 123°16'614.1
2018-Jun-14 22:31N 49°07' W 123°07'4 7.5
2018-Jun-14 22:00N 49°09' W 123°02'0 0.0
2018-Jun-14 21:29N 49°09' W 123°02'0 0.0
2018-Jun-14 21:00N 49°09' W 123°02'0 0.0
2018-Jun-14 20:30N 49°09' W 123°02'3 6.1
2018-Jun-14 20:00N 49°07' W 123°06'5 9.7
2018-Jun-14 19:30N 49°08' W 123°13'510.2
2018-Jun-14 18:58N 49°07' W 123°21'613.4
2018-Jun-14 18:29N 49°08' W 123°31'13 1.6
2018-Jun-14 10:24N 49°13' W 123°49'1015.9
2018-Jun-14 09:45N 49°11' W 123°34'416.1
2018-Jun-14 09:28N 49°09' W 123°27'714.3
2018-Jun-14 09:00N 49°07' W 123°18'713.1
2018-Jun-14 08:29N 49°07' W 123°07'4 8.2
2018-Jun-14 08:00N 49°09' W 123°02'0 0.0
2018-Jun-14 07:30N 49°09' W 123°02'0 0.0
2018-Jun-14 07:00N 49°09' W 123°02'0 0.0
2018-Jun-14 06:30N 49°09' W 123°02'1 3.0
2018-Jun-14 06:00N 49°08' W 123°04'610.3
2018-Jun-14 05:23N 49°08' W 123°14'512.6
2018-Jun-14 05:00N 49°05' W 123°19'714.3
2018-Jun-14 04:29N 48°58' W 123°18'612.2
2018-Jun-14 03:59N 48°51' W 123°20'510.8
2018-Jun-14 03:30N 48°46' W 123°21'511.1
2018-Jun-14 03:00N 48°41' W 123°24'0 0.0
2018-Jun-14 02:30N 48°41' W 123°24'0 0.0
2018-Jun-14 02:00N 48°41' W 123°24'0 0.0
2018-Jun-14 01:30N 48°41' W 123°24'1 1.4
2018-Jun-14 01:00N 48°42' W 123°23'712.8
2018-Jun-14 00:28N 48°48' W 123°21'510.7
2018-Jun-13 23:58N 48°53' W 123°18'714.8
2018-Jun-13 23:30N 49°00' W 123°20'712.7
2018-Jun-13 22:59N 49°06' W 123°18'713.1
2018-Jun-13 22:29N 49°07' W 123°08'4 8.5
2018-Jun-13 22:00N 49°09' W 123°02'0 0.0
2018-Jun-13 21:30N 49°09' W 123°02'0 0.0
2018-Jun-13 21:00N 49°09' W 123°02'0 0.0
2018-Jun-13 20:30N 49°09' W 123°02'3 6.1
2018-Jun-13 20:00N 49°07' W 123°06'611.0
2018-Jun-13 19:30N 49°08' W 123°14'612.1
2018-Jun-13 18:59N 49°07' W 123°24'4 0.4
2018-Jun-13 09:15N 49°09' W 123°29'415.2
2018-Jun-13 09:00N 49°07' W 123°23'714.2
2018-Jun-13 08:30N 49°08' W 123°13'612.4
2018-Jun-13 08:00N 49°08' W 123°03'1 1.5
2018-Jun-13 07:30N 49°09' W 123°02'0 0.0
2018-Jun-13 07:00N 49°09' W 123°02'0 0.0
2018-Jun-13 06:30N 49°09' W 123°02'4 7.7
2018-Jun-13 06:00N 49°07' W 123°07'611.4
2018-Jun-13 05:30N 49°07' W 123°16'510.3
2018-Jun-13 05:00N 49°02' W 123°17'814.2
2018-Jun-13 04:27N 48°54' W 123°18'5 9.9
2018-Jun-13 03:59N 48°50' W 123°21'713.3
2018-Jun-13 03:25N 48°43' W 123°21'3 6.9
2018-Jun-13 03:01N 48°41' W 123°24'0 0.0
2018-Jun-13 02:30N 48°41' W 123°24'0 0.0
2018-Jun-13 02:00N 48°41' W 123°24'0 0.0
2018-Jun-13 01:31N 48°41' W 123°24'0 0.0
2018-Jun-13 01:01N 48°41' W 123°24'4 8.6
2018-Jun-13 00:30N 48°45' W 123°21'713.2
2018-Jun-13 00:00N 48°52' W 123°20'714.1
2018-Jun-12 23:30N 48°59' W 123°19'714.5
2018-Jun-12 23:00N 49°06' W 123°19'712.4
2018-Jun-12 22:29N 49°07' W 123°09'510.1
2018-Jun-12 21:59N 49°09' W 123°02'0 0.0
2018-Jun-12 21:30N 49°09' W 123°02'0 0.0
2018-Jun-12 21:00N 49°09' W 123°02'0 0.0
2018-Jun-12 20:30N 49°09' W 123°02'2 3.1
2018-Jun-12 20:00N 49°08' W 123°04'710.6
2018-Jun-12 19:21N 49°08' W 123°15'411.6
2018-Jun-12 19:01N 49°06' W 123°20'12 1.2
2018-Jun-12 09:40N 49°10' W 123°36'315.2
2018-Jun-12 09:29N 49°09' W 123°33'815.3
2018-Jun-12 08:59N 49°06' W 123°22'714.1
2018-Jun-12 08:30N 49°07' W 123°11'612.2
2018-Jun-12 08:00N 49°09' W 123°02'0 0.2
2018-Jun-12 07:29N 49°09' W 123°02'0 0.0
2018-Jun-12 07:00N 49°09' W 123°02'0 0.0
2018-Jun-12 06:30N 49°09' W 123°02'1 2.0
2018-Jun-12 06:00N 49°08' W 123°03'610.9
2018-Jun-12 05:29N 49°07' W 123°12'6 9.8
2018-Jun-12 04:55N 49°04' W 123°19'714.3
2018-Jun-12 04:25N 48°57' W 123°17'613.8
2018-Jun-12 04:00N 48°51' W 123°19'611.3
2018-Jun-12 03:29N 48°46' W 123°21'510.5
2018-Jun-12 03:00N 48°41' W 123°24'0 0.1
2018-Jun-12 02:30N 48°41' W 123°24'0 0.0
2018-Jun-12 02:00N 48°41' W 123°24'0 0.0
2018-Jun-12 01:30N 48°41' W 123°24'0 0.0
2018-Jun-12 01:00N 48°41' W 123°24'4 8.6
2018-Jun-12 00:30N 48°45' W 123°21'712.5
2018-Jun-11 23:57N 48°52' W 123°19'613.3
2018-Jun-11 23:30N 48°58' W 123°19'814.4
2018-Jun-11 22:57N 49°06' W 123°19'613.4
2018-Jun-11 22:29N 49°07' W 123°10'511.3
2018-Jun-11 22:00N 49°09' W 123°02'0 0.1
2018-Jun-11 21:30N 49°09' W 123°02'0 0.0
2018-Jun-11 20:58N 49°09' W 123°02'0 0.0
2018-Jun-11 20:30N 49°09' W 123°02'1 1.4
2018-Jun-11 20:00N 49°08' W 123°03'610.7
2018-Jun-11 19:29N 49°07' W 123°11'711.9
2018-Jun-11 18:55N 49°06' W 123°22'  
Track history (hours):
 
Tides and Currents Weather Stations Pressure Air Temp Water Temp Dewpoint Dewpoint Depression Visibility Wind Speed Wind Dir Waves Ship Positions

Seaspan Reliant

Last reported at 2018-Jun-21 09:09 UTC. Time now 2018-Jun-21 09:58 UTC.
Position N 49°08' W 123°23'.

Length 150 m; draft 4 m.

Type: Ship. MMSI: 316033814.

Date/timePositionNaut miles runAvg speedWind from/ knotsBaromVisibWave heightAir tempDewpointWater temp
2018-Jun-21 09:09N 49°08' W 123°23'414.8
2018-Jun-21 08:52N 49°07' W 123°17'514.9
2018-Jun-21 08:30N 49°07' W 123°09'5 9.3
2018-Jun-21 07:59N 49°09' W 123°02'0 0.0
2018-Jun-21 07:30N 49°09' W 123°02'0 0.0
2018-Jun-21 07:00N 49°09' W 123°02'0 0.0
2018-Jun-21 06:30N 49°09' W 123°02'1 2.1
2018-Jun-21 06:00N 49°08' W 123°03'611.0
2018-Jun-21 05:30N 49°07' W 123°12'611.4
2018-Jun-21 05:00N 49°05' W 123°20'1014.5
2018-Jun-21 04:18N 48°55' W 123°18'411.7
2018-Jun-21 04:00N 48°52' W 123°21'611.7
2018-Jun-21 03:30N 48°46' W 123°22'5 9.8
2018-Jun-21 03:00N 48°41' W 123°24'0 0.0
2018-Jun-21 02:30N 48°41' W 123°24'0 0.0
2018-Jun-21 02:00N 48°41' W 123°24'0 0.0
2018-Jun-21 01:30N 48°41' W 123°24'0 0.1
2018-Jun-21 00:59N 48°41' W 123°24'510.6
2018-Jun-21 00:30N 48°46' W 123°21'1411.9
2018-Jun-20 23:19N 49°00' W 123°19'613.3
2018-Jun-20 22:53N 49°06' W 123°19'714.4
2018-Jun-20 22:26N 49°07' W 123°09'512.2
2018-Jun-20 22:00N 49°09' W 123°02'0 0.0
2018-Jun-20 21:30N 49°09' W 123°02'0 0.0
2018-Jun-20 20:58N 49°09' W 123°02'0 0.0
2018-Jun-20 20:30N 49°09' W 123°02'1 2.8
2018-Jun-20 20:01N 49°08' W 123°04'712.3
2018-Jun-20 19:28N 49°08' W 123°14'14 1.5
2018-Jun-20 09:44N 49°11' W 123°35'416.4
2018-Jun-20 09:28N 49°09' W 123°29'816.6
2018-Jun-20 09:01N 49°06' W 123°19'714.3
2018-Jun-20 08:31N 49°07' W 123°08'4 8.6
2018-Jun-20 08:00N 49°09' W 123°02'0 0.0
2018-Jun-20 07:30N 49°09' W 123°02'0 0.0
2018-Jun-20 07:00N 49°09' W 123°02'0 0.0
2018-Jun-20 06:30N 49°09' W 123°02'1 1.1
2018-Jun-20 06:00N 49°08' W 123°03'4 7.6
2018-Jun-20 05:31N 49°06' W 123°08'712.4
2018-Jun-20 04:59N 49°06' W 123°18'613.0
2018-Jun-20 04:30N 49°00' W 123°19'812.9
2018-Jun-20 03:53N 48°52' W 123°18'511.8
2018-Jun-20 03:25N 48°47' W 123°21'613.9
2018-Jun-20 03:00N 48°42' W 123°23'1 1.4
2018-Jun-20 02:30N 48°41' W 123°24'0 0.0
2018-Jun-20 01:59N 48°41' W 123°24'0 0.0
2018-Jun-20 01:30N 48°41' W 123°24'0 0.0
2018-Jun-20 01:00N 48°41' W 123°24'5 9.4
2018-Jun-20 00:30N 48°45' W 123°21'1012.1
2018-Jun-19 23:42N 48°55' W 123°18'512.2
2018-Jun-19 23:16N 49°00' W 123°20'514.8
2018-Jun-19 22:54N 49°06' W 123°19'614.5
2018-Jun-19 22:29N 49°07' W 123°10'611.8
2018-Jun-19 22:00N 49°09' W 123°02'0 0.4
2018-Jun-19 21:30N 49°09' W 123°02'0 0.0
2018-Jun-19 21:00N 49°09' W 123°02'0 0.0
2018-Jun-19 20:30N 49°09' W 123°02'2 3.6
2018-Jun-19 20:00N 49°08' W 123°04'711.7
2018-Jun-19 19:24N 49°08' W 123°15'612.8
2018-Jun-19 18:57N 49°07' W 123°24'9 0.9
2018-Jun-19 09:45N 49°11' W 123°36'415.2
2018-Jun-19 09:28N 49°09' W 123°30'715.6
2018-Jun-19 09:00N 49°06' W 123°19'714.5
2018-Jun-19 08:30N 49°07' W 123°08'5 9.2
2018-Jun-19 08:00N 49°09' W 123°02'0 0.1
2018-Jun-19 07:30N 49°09' W 123°02'0 0.0
2018-Jun-19 07:00N 49°09' W 123°02'0 0.0
2018-Jun-19 06:30N 49°09' W 123°02'1 1.1
2018-Jun-19 06:00N 49°08' W 123°03'610.4
2018-Jun-19 05:25N 49°07' W 123°12'1110.3
2018-Jun-19 04:23N 48°58' W 123°18'611.4
2018-Jun-19 03:51N 48°52' W 123°20'613.7
2018-Jun-19 03:23N 48°45' W 123°22'411.2
2018-Jun-19 03:00N 48°41' W 123°24'0 0.1
2018-Jun-19 02:30N 48°41' W 123°24'0 0.0
2018-Jun-19 02:00N 48°41' W 123°24'0 0.0
2018-Jun-19 01:30N 48°41' W 123°24'0 0.1
2018-Jun-19 01:01N 48°41' W 123°24'5 9.4
2018-Jun-19 00:30N 48°46' W 123°21'611.2
2018-Jun-18 23:58N 48°52' W 123°21'510.6
2018-Jun-18 23:28N 48°57' W 123°18'815.2
2018-Jun-18 22:58N 49°04' W 123°20'714.3
2018-Jun-18 22:27N 49°07' W 123°09'5 2.3
2018-Jun-18 20:17N 49°09' W 123°02'1 4.1
2018-Jun-18 19:59N 49°08' W 123°04'810.3
2018-Jun-18 19:10N 49°07' W 123°16'212.5
2018-Jun-18 18:59N 49°06' W 123°20'2 0.2
2018-Jun-18 06:49N 49°07' W 123°23'510.6
2018-Jun-18 06:20N 49°08' W 123°15'411.2
2018-Jun-18 06:00N 49°07' W 123°10'5 3.2
2018-Jun-18 04:21N 49°09' W 123°02'0 0.0
2018-Jun-18 04:01N 49°09' W 123°02'0 0.0
2018-Jun-18 03:31N 49°09' W 123°02'0 0.0
2018-Jun-18 03:00N 49°09' W 123°02'0 0.0
2018-Jun-18 02:30N 49°09' W 123°02'0 0.0
2018-Jun-18 02:00N 49°09' W 123°02'0 0.0
2018-Jun-18 01:30N 49°09' W 123°02'0 0.0
2018-Jun-18 01:00N 49°09' W 123°02'0 0.0
2018-Jun-18 00:30N 49°09' W 123°02'0 0.0
2018-Jun-18 00:00N 49°09' W 123°02'0 0.0
2018-Jun-17 23:31N 49°09' W 123°02'0 0.0
2018-Jun-17 23:01N 49°09' W 123°02'0 0.0
2018-Jun-17 22:30N 49°09' W 123°02'0 0.0
2018-Jun-17 22:00N 49°09' W 123°02'0 0.0
2018-Jun-17 21:30N 49°09' W 123°02'0 0.0
2018-Jun-17 21:00N 49°09' W 123°02'0 0.0
2018-Jun-17 20:31N 49°09' W 123°02'0 0.0
2018-Jun-17 20:01N 49°09' W 123°02'0 0.0
2018-Jun-17 19:30N 49°09' W 123°02'0 0.0
2018-Jun-17 19:00N 49°09' W 123°02'0 0.0
2018-Jun-17 18:31N 49°09' W 123°02'0 0.0
2018-Jun-17 18:00N 49°09' W 123°02'0 0.0
2018-Jun-17 17:30N 49°09' W 123°02'0 0.0
2018-Jun-17 17:00N 49°09' W 123°02'0 0.0
2018-Jun-17 16:31N 49°09' W 123°02'0 0.0
2018-Jun-17 16:00N 49°09' W 123°02'3 5.2
2018-Jun-17 15:30N 49°07' W 123°05'5 9.6
2018-Jun-17 14:56N 49°08' W 123°13'510.6
2018-Jun-17 14:29N 49°05' W 123°20'510.6
2018-Jun-17 14:00N 49°00' W 123°18'611.0
2018-Jun-17 13:29N 48°55' W 123°18'5 9.2
2018-Jun-17 13:00N 48°51' W 123°21'511.1
2018-Jun-17 12:30N 48°45' W 123°21'4 8.9
2018-Jun-17 12:01N 48°41' W 123°24'0 0.3
2018-Jun-17 11:30N 48°41' W 123°24'0 0.0
2018-Jun-17 11:00N 48°41' W 123°24'0 0.0
2018-Jun-17 10:30N 48°41' W 123°24'0 0.4
2018-Jun-17 10:01N 48°41' W 123°24'510.1
2018-Jun-17 09:30N 48°46' W 123°21'1111.5
2018-Jun-17 08:33N 48°57' W 123°18'113.0
2018-Jun-17 08:29N 48°58' W 123°19'713.3
2018-Jun-17 07:59N 49°04' W 123°20'3 7.3
2018-Jun-17 07:31N 49°07' W 123°16'611.2
2018-Jun-17 07:00N 49°06' W 123°08'4 8.4
2018-Jun-17 06:29N 49°09' W 123°02'0 0.0
2018-Jun-17 05:59N 49°09' W 123°02'0 0.0
2018-Jun-17 05:30N 49°09' W 123°02'0 0.0
2018-Jun-17 05:00N 49°09' W 123°02'0 0.0
2018-Jun-17 04:30N 49°09' W 123°02'0 0.0
2018-Jun-17 04:00N 49°09' W 123°02'0 0.0
2018-Jun-17 03:30N 49°09' W 123°02'0 0.0
2018-Jun-17 03:00N 49°09' W 123°02'0 0.0
2018-Jun-17 02:30N 49°09' W 123°02'0 0.0
2018-Jun-17 02:00N 49°09' W 123°02'0 0.0
2018-Jun-17 01:30N 49°09' W 123°02'0 0.0
2018-Jun-17 01:00N 49°09' W 123°02'0 0.0
2018-Jun-17 00:30N 49°09' W 123°02'0 0.0
2018-Jun-17 00:00N 49°09' W 123°02'0 0.0
2018-Jun-16 23:29N 49°09' W 123°02'0 0.0
2018-Jun-16 23:00N 49°09' W 123°02'0 0.0
2018-Jun-16 22:29N 49°09' W 123°02'0 0.0
2018-Jun-16 21:59N 49°09' W 123°02'0 0.0
2018-Jun-16 21:30N 49°09' W 123°02'0 0.0
2018-Jun-16 21:00N 49°09' W 123°02'0 0.0
2018-Jun-16 20:29N 49°09' W 123°02'1 2.4
2018-Jun-16 20:00N 49°08' W 123°03'510.0
2018-Jun-16 19:28N 49°07' W 123°12'510.1
2018-Jun-16 19:00N 49°06' W 123°19'9 1.0
2018-Jun-16 09:34N 49°10' W 123°32'114.9
2018-Jun-16 09:29N 49°10' W 123°30'714.3
2018-Jun-16 09:00N 49°07' W 123°21'713.3
2018-Jun-16 08:30N 49°07' W 123°10'611.2
2018-Jun-16 08:00N 49°09' W 123°02'0 0.0
2018-Jun-16 07:30N 49°09' W 123°02'0 0.0
2018-Jun-16 07:00N 49°09' W 123°02'0 0.0
2018-Jun-16 06:30N 49°09' W 123°02'1 1.6
2018-Jun-16 06:00N 49°08' W 123°03'611.1
2018-Jun-16 05:30N 49°07' W 123°12'611.7
2018-Jun-16 04:59N 49°05' W 123°20'714.4
2018-Jun-16 04:28N 48°57' W 123°18'610.7
2018-Jun-16 03:56N 48°52' W 123°20'511.7
2018-Jun-16 03:31N 48°47' W 123°21'611.3
2018-Jun-16 03:00N 48°41' W 123°24'0 0.0
2018-Jun-16 02:31N 48°41' W 123°24'0 0.0
2018-Jun-16 02:00N 48°41' W 123°24'0 0.0
2018-Jun-16 01:31N 48°41' W 123°24'0 0.2
2018-Jun-16 01:00N 48°41' W 123°24'510.6
2018-Jun-16 00:30N 48°46' W 123°21'610.7
2018-Jun-16 00:00N 48°52' W 123°19'613.0
2018-Jun-15 23:30N 48°58' W 123°20'813.9
2018-Jun-15 22:57N 49°06' W 123°20'714.1
2018-Jun-15 22:29N 49°07' W 123°10'510.8
2018-Jun-15 22:00N 49°09' W 123°02'0 0.0
2018-Jun-15 21:29N 49°09' W 123°02'0 0.0
2018-Jun-15 21:00N 49°09' W 123°02'0 0.0
2018-Jun-15 20:30N 49°09' W 123°02'2 3.4
2018-Jun-15 20:00N 49°08' W 123°04'610.3
2018-Jun-15 19:23N 49°08' W 123°14'511.6
2018-Jun-15 18:57N 49°06' W 123°21'9 1.0
2018-Jun-15 09:39N 49°10' W 123°34'315.1
2018-Jun-15 09:27N 49°09' W 123°29'715.1
2018-Jun-15 08:59N 49°06' W 123°19'714.4
2018-Jun-15 08:29N 49°06' W 123°08'5 9.5
2018-Jun-15 08:00N 49°09' W 123°02'0 0.0
2018-Jun-15 07:29N 49°09' W 123°02'0 0.0
2018-Jun-15 07:01N 49°09' W 123°02'0 0.0
2018-Jun-15 06:30N 49°09' W 123°02'1 1.8
2018-Jun-15 05:59N 49°08' W 123°03'510.8
2018-Jun-15 05:30N 49°07' W 123°11'612.0
2018-Jun-15 05:00N 49°05' W 123°20'814.6
2018-Jun-15 04:27N 48°57' W 123°18'610.9
2018-Jun-15 03:55N 48°52' W 123°21'513.6
2018-Jun-15 03:30N 48°46' W 123°22'510.4
2018-Jun-15 03:01N 48°41' W 123°24'0 0.0
2018-Jun-15 02:29N 48°41' W 123°24'0 0.0
2018-Jun-15 02:00N 48°41' W 123°24'0 0.0
2018-Jun-15 01:31N 48°41' W 123°24'1 1.4
2018-Jun-15 01:01N 48°42' W 123°23'712.7
2018-Jun-15 00:30N 48°48' W 123°21'1012.2
2018-Jun-14 23:42N 48°58' W 123°20'315.2
2018-Jun-14 23:29N 49°01' W 123°21'712.8
2018-Jun-14 22:57N 49°07' W 123°16'614.1
2018-Jun-14 22:31N 49°07' W 123°07'4 7.5
2018-Jun-14 22:00N 49°09' W 123°02'0 0.0
2018-Jun-14 21:29N 49°09' W 123°02'0 0.0
2018-Jun-14 21:00N 49°09' W 123°02'0 0.0
2018-Jun-14 20:30N 49°09' W 123°02'3 6.1
2018-Jun-14 20:00N 49°07' W 123°06'5 9.7
2018-Jun-14 19:30N 49°08' W 123°13'510.2
2018-Jun-14 18:58N 49°07' W 123°21'613.4
2018-Jun-14 18:29N 49°08' W 123°31'13 1.6
2018-Jun-14 10:24N 49°13' W 123°49'1015.9
2018-Jun-14 09:45N 49°11' W 123°34'416.1
2018-Jun-14 09:28N 49°09' W 123°27'714.3
2018-Jun-14 09:00N 49°07' W 123°18'713.1
2018-Jun-14 08:29N 49°07' W 123°07'4 8.2
2018-Jun-14 08:00N 49°09' W 123°02'0 0.0
2018-Jun-14 07:30N 49°09' W 123°02'0 0.0
2018-Jun-14 07:00N 49°09' W 123°02'0 0.0
2018-Jun-14 06:30N 49°09' W 123°02'1 3.0
2018-Jun-14 06:00N 49°08' W 123°04'610.3
2018-Jun-14 05:23N 49°08' W 123°14'512.6
2018-Jun-14 05:00N 49°05' W 123°19'714.3
2018-Jun-14 04:29N 48°58' W 123°18'612.2
2018-Jun-14 03:59N 48°51' W 123°20'510.8
2018-Jun-14 03:30N 48°46' W 123°21'511.1
2018-Jun-14 03:00N 48°41' W 123°24'0 0.0
2018-Jun-14 02:30N 48°41' W 123°24'0 0.0
2018-Jun-14 02:00N 48°41' W 123°24'0 0.0
2018-Jun-14 01:30N 48°41' W 123°24'1 1.4
2018-Jun-14 01:00N 48°42' W 123°23'712.8
2018-Jun-14 00:28N 48°48' W 123°21'510.7
2018-Jun-13 23:58N 48°53' W 123°18'714.8
2018-Jun-13 23:30N 49°00' W 123°20'712.7
2018-Jun-13 22:59N 49°06' W 123°18'713.1
2018-Jun-13 22:29N 49°07' W 123°08'4 8.5
2018-Jun-13 22:00N 49°09' W 123°02'0 0.0
2018-Jun-13 21:30N 49°09' W 123°02'0 0.0
2018-Jun-13 21:00N 49°09' W 123°02'0 0.0
2018-Jun-13 20:30N 49°09' W 123°02'3 6.1
2018-Jun-13 20:00N 49°07' W 123°06'611.0
2018-Jun-13 19:30N 49°08' W 123°14'612.1
2018-Jun-13 18:59N 49°07' W 123°24'4 0.4
2018-Jun-13 09:15N 49°09' W 123°29'415.2
2018-Jun-13 09:00N 49°07' W 123°23'714.2
2018-Jun-13 08:30N 49°08' W 123°13'612.4
2018-Jun-13 08:00N 49°08' W 123°03'1 1.5
2018-Jun-13 07:30N 49°09' W 123°02'0 0.0
2018-Jun-13 07:00N 49°09' W 123°02'0 0.0
2018-Jun-13 06:30N 49°09' W 123°02'4 7.7
2018-Jun-13 06:00N 49°07' W 123°07'611.4
2018-Jun-13 05:30N 49°07' W 123°16'510.3
2018-Jun-13 05:00N 49°02' W 123°17'814.2
2018-Jun-13 04:27N 48°54' W 123°18'5 9.9
2018-Jun-13 03:59N 48°50' W 123°21'713.3
2018-Jun-13 03:25N 48°43' W 123°21'3 6.9
2018-Jun-13 03:01N 48°41' W 123°24'0 0.0
2018-Jun-13 02:30N 48°41' W 123°24'0 0.0
2018-Jun-13 02:00N 48°41' W 123°24'0 0.0
2018-Jun-13 01:31N 48°41' W 123°24'0 0.0
2018-Jun-13 01:01N 48°41' W 123°24'4 8.6
2018-Jun-13 00:30N 48°45' W 123°21'713.2
2018-Jun-13 00:00N 48°52' W 123°20'714.1
2018-Jun-12 23:30N 48°59' W 123°19'714.5
2018-Jun-12 23:00N 49°06' W 123°19'712.4
2018-Jun-12 22:29N 49°07' W 123°09'510.1
2018-Jun-12 21:59N 49°09' W 123°02'0 0.0
2018-Jun-12 21:30N 49°09' W 123°02'0 0.0
2018-Jun-12 21:00N 49°09' W 123°02'0 0.0
2018-Jun-12 20:30N 49°09' W 123°02'2 3.1
2018-Jun-12 20:00N 49°08' W 123°04'710.6
2018-Jun-12 19:21N 49°08' W 123°15'411.6
2018-Jun-12 19:01N 49°06' W 123°20'12 1.2
2018-Jun-12 09:40N 49°10' W 123°36'315.2
2018-Jun-12 09:29N 49°09' W 123°33'815.3
2018-Jun-12 08:59N 49°06' W 123°22'714.1
2018-Jun-12 08:30N 49°07' W 123°11'612.2
2018-Jun-12 08:00N 49°09' W 123°02'0 0.2
2018-Jun-12 07:29N 49°09' W 123°02'0 0.0
2018-Jun-12 07:00N 49°09' W 123°02'0 0.0
2018-Jun-12 06:30N 49°09' W 123°02'1 2.0
2018-Jun-12 06:00N 49°08' W 123°03'610.9
2018-Jun-12 05:29N 49°07' W 123°12'6 9.8
2018-Jun-12 04:55N 49°04' W 123°19'714.3
2018-Jun-12 04:25N 48°57' W 123°17'613.8
2018-Jun-12 04:00N 48°51' W 123°19'611.3
2018-Jun-12 03:29N 48°46' W 123°21'510.5
2018-Jun-12 03:00N 48°41' W 123°24'0 0.1
2018-Jun-12 02:30N 48°41' W 123°24'0 0.0
2018-Jun-12 02:00N 48°41' W 123°24'0 0.0
2018-Jun-12 01:30N 48°41' W 123°24'0 0.0
2018-Jun-12 01:00N 48°41' W 123°24'4 8.6
2018-Jun-12 00:30N 48°45' W 123°21'712.5
2018-Jun-11 23:57N 48°52' W 123°19'613.3
2018-Jun-11 23:30N 48°58' W 123°19'814.4
2018-Jun-11 22:57N 49°06' W 123°19'613.4
2018-Jun-11 22:29N 49°07' W 123°10'511.3
2018-Jun-11 22:00N 49°09' W 123°02'0 0.1
2018-Jun-11 21:30N 49°09' W 123°02'0 0.0
2018-Jun-11 20:58N 49°09' W 123°02'0 0.0
2018-Jun-11 20:30N 49°09' W 123°02'1 1.4
2018-Jun-11 20:00N 49°08' W 123°03'610.7
2018-Jun-11 19:29N 49°07' W 123°11'711.9
2018-Jun-11 18:55N 49°06' W 123°22'  

Dump ship's entire track history